Cape May Point, NJ (08212)

10:14 PM EST on February 05, 2016 (GMT -0500)
KNJCAPEM2 | | Change Station
CLOSE
Current Station
Personal Weather Station
Location: Cape May Point, NJ
Elevation: 35 ft
Nearby Weather Stations

Elev 35 ft 38.93 °N, 74.96 °W | Updated 4 minutes ago

Clear
Clear
37.7 °F
Feels Like 31 °F
N
9.0
Wind Variable Wind from NW
Gusts 14.0 mph

Today
High -- | Low -- °F
--% Chance of Precip.
Yesterday
High -- | Low -- °F
Precip. -- in
Pressure 30.35 in
Visibility 10.0 miles
Clouds Clear
Windchill 31 °F
Dew Point 30 °F
Humidity 74%
Rainfall 0.58 in
Snow Depth Not available.
7:02 AM 5:25 PM
Waning Crescent, 8% visible
METAR KWWD 060255Z AUTO 33006KT 10SM CLR 02/M04 A3035 RMK AO1 52007
Pressure 30.35 in
Visibility 10.0 miles
Clouds Clear
Windchill 31 °F
Dew Point 30 °F
Humidity 74%
Rainfall 0.58 in
Snow Depth Not available.
7:02 AM 5:25 PM
Waning Crescent, 8% visible
METAR KWWD 060255Z AUTO 33006KT 10SM CLR 02/M04 A3035 RMK AO1 52007

10-Day Weather Forecast

Almanac

Astronomy

Feb. 05, 2016 Rise Set
Actual Time
Civil Twilight
Nautical Twilight
Astronomical Twilight
Moon
Length of Visible Light
Length of Day
Tomorrow will be .
, % of the Moon is Illuminated

Today's Extremes

State Highs State Lows

Community

WunderPhotos

Upload Photos

1,890,915 photos uploaded!

WunderBlog® & News

Nearby

Air Quality

  Air Quality AQ Index Pollutant
Not available.

Snow Depth

Station Depth Elevation

Earthquake Activity

City Distance Mag. Time & Date
Minimum magnitude displayed is 2.5.

Coastal Water Temperatures

Place Temperature

Stations

Nearby Weather Stations

Station Location Temp. Windchill Dew Point Humidity Wind Precip. Elev Updated Type
                   

Watches & Warnings

Special Statement
Issued: 7:26 PM EST Feb. 5, 2016 – National Weather Service

... Patchy ice overnight and early on Saturday morning...

Standing water, mostly from snowmelt, will freeze overnight
resulting in patchy ice. The ice patches will be mainly on
secondary roads, walkways and parking lots.

If you will be going out overnight or early on Saturday morning,
use extra caution.


Iovino

726 PM EST Fri Feb 5 2016

... Patchy ice overnight and early on Saturday morning...

Standing water, mostly from snowmelt, will freeze overnight
resulting in patchy ice. The ice patches will be mainly on
secondary roads, walkways and parking lots.

If you will be going out overnight or early on Saturday morning,
use extra caution.


Iovino